Time;durP1;ratioP1;P1;durP2;ratioP2;P2;SDS_P1;SDS_P2;PMS_P1;PMS_P2;Temp;Humidity;BMP_temperature;BMP_pressure;BME280_temperature;BME280_humidity;BME280_pressure;Samples;Min_cycle;Max_cycle;Signal;HPM_P1;HPM_P2
2021/05/15 00:01:52;;;;;;;2.65;2.05;;;15.20;73.80;;;;;;4958024;28;20030;-90
2021/05/15 00:04:18;;;;;;;2.47;2.28;;;15.10;73.80;;;;;;4944022;28;20034;-91
2021/05/15 00:06:44;;;;;;;2.03;1.80;;;15.10;73.90;;;;;;4942281;29;20027;-91
2021/05/15 00:09:10;;;;;;;2.30;2.10;;;15.00;74.10;;;;;;4957549;28;20038;-91
2021/05/15 00:11:37;;;;;;;2.58;2.17;;;15.00;74.20;;;;;;4960517;28;20102;-91
2021/05/15 00:14:04;;;;;;;2.25;2.05;;;14.90;74.30;;;;;;4959894;28;20105;-89
2021/05/15 00:16:31;;;;;;;2.92;1.75;;;14.90;74.60;;;;;;4960561;28;20026;-93
2021/05/15 00:18:57;;;;;;;2.60;2.08;;;14.90;74.80;;;;;;4960362;28;20118;-91
2021/05/15 00:21:23;;;;;;;2.85;2.00;;;14.80;75.00;;;;;;4960292;28;20062;-91
2021/05/15 00:23:49;;;;;;;2.20;2.00;;;14.70;75.10;;;;;;4959859;28;20061;-91
2021/05/15 00:26:15;;;;;;;2.30;1.95;;;14.70;75.40;;;;;;4944304;28;20030;-91
2021/05/15 00:28:41;;;;;;;2.03;1.90;;;14.70;75.60;;;;;;4977120;28;20459;-91
2021/05/15 00:31:07;;;;;;;2.63;2.13;;;14.60;75.80;;;;;;4959901;28;20050;-92
2021/05/15 00:33:33;;;;;;;2.08;1.83;;;14.60;75.90;;;;;;4960319;28;20022;-91
2021/05/15 00:36:00;;;;;;;2.53;2.33;;;14.50;76.70;;;;;;4976936;28;20042;-90
2021/05/15 00:38:26;;;;;;;4.03;2.42;;;14.50;76.30;;;;;;4944093;28;20458;-91
2021/05/15 00:40:52;;;;;;;2.85;2.33;;;14.50;76.50;;;;;;4959760;28;20034;-90
2021/05/15 00:43:18;;;;;;;3.30;2.70;;;14.40;76.80;;;;;;4959574;28;20066;-90
2021/05/15 00:45:45;;;;;;;2.25;2.05;;;14.40;77.00;;;;;;4959630;28;20018;-91
2021/05/15 00:48:11;;;;;;;3.70;2.33;;;14.40;77.10;;;;;;4959505;28;20085;-90
2021/05/15 00:50:37;;;;;;;2.28;2.08;;;14.30;77.30;;;;;;4976440;28;20061;-91
2021/05/15 00:53:03;;;;;;;2.67;2.00;;;14.30;77.50;;;;;;4959101;28;20477;-90
2021/05/15 00:55:31;;;;;;;2.42;2.22;;;14.30;77.60;;;;;;4950424;29;20045;-90
2021/05/15 00:57:58;;;;;;;2.60;2.40;;;14.30;77.80;;;;;;4940456;29;20045;-90
2021/05/15 01:00:25;;;;;;;2.15;1.85;;;14.20;78.00;;;;;;4957586;28;20050;-90
2021/05/15 01:02:52;;;;;;;2.45;2.25;;;14.20;78.20;;;;;;4976278;28;20023;-91
2021/05/15 01:05:18;;;;;;;4.75;2.78;;;14.20;78.40;;;;;;4939740;28;20422;-90
2021/05/15 01:07:46;;;;;;;2.90;2.60;;;14.20;78.80;;;;;;4948446;28;20022;-89
2021/05/15 01:10:14;;;;;;;3.90;2.53;;;14.10;78.90;;;;;;4975648;28;20045;-89
2021/05/15 01:12:51;;;;;;;3.20;2.58;;;14.10;79.30;;;;;;4958987;28;20023;-89
2021/05/15 01:15:22;;;;;;;2.72;2.45;;;14.10;79.40;;;;;;4958804;28;20046;-90
2021/05/15 01:17:58;;;;;;;3.20;2.90;;;14.00;79.50;;;;;;4955534;28;20514;-89
2021/05/15 01:20:26;;;;;;;2.92;2.45;;;14.00;79.80;;;;;;4970664;28;20027;-90
2021/05/15 01:22:54;;;;;;;2.92;2.30;;;14.00;80.00;;;;;;4960180;28;20030;-90
2021/05/15 01:25:20;;;;;;;3.08;2.70;;;13.90;80.10;;;;;;4976708;28;20054;-90
2021/05/15 01:27:46;;;;;;;4.35;3.10;;;13.90;80.40;;;;;;4940403;29;20024;-90
2021/05/15 01:30:14;;;;;;;2.65;2.42;;;13.90;80.60;;;;;;4958499;28;20035;-90
2021/05/15 01:32:43;;;;;;;3.00;2.50;;;13.80;80.60;;;;;;4943106;28;20496;-90
2021/05/15 01:35:10;;;;;;;4.38;3.13;;;13.80;81.10;;;;;;4949947;28;20035;-90
2021/05/15 01:37:35;;;;;;;4.75;3.17;;;13.80;81.20;;;;;;4970939;28;20038;-88
2021/05/15 01:40:06;;;;;;;5.05;3.20;;;13.80;81.30;;;;;;4954888;29;20035;-88
2021/05/15 01:42:33;;;;;;;3.30;3.00;;;13.70;81.60;;;;;;4969576;29;20023;-90
2021/05/15 01:44:59;;;;;;;4.03;2.42;;;13.70;81.80;;;;;;4943496;29;20023;-88
2021/05/15 01:47:26;;;;;;;3.72;2.80;;;13.70;81.90;;;;;;4957495;29;20383;-90
2021/05/15 01:49:52;;;;;;;4.95;3.25;;;13.70;82.10;;;;;;4961250;28;20042;-89
2021/05/15 01:52:18;;;;;;;5.10;3.13;;;13.60;82.30;;;;;;4967527;28;20481;-91
2021/05/15 01:54:44;;;;;;;3.60;3.13;;;13.60;82.20;;;;;;4955384;28;20039;-89
2021/05/15 01:57:10;;;;;;;3.58;3.10;;;13.60;82.40;;;;;;4939408;29;20054;-89
2021/05/15 01:59:37;;;;;;;3.33;3.00;;;13.50;82.50;;;;;;4935855;29;20079;-88
2021/05/15 02:02:03;;;;;;;3.65;3.25;;;13.50;82.70;;;;;;4922531;29;20030;-89
2021/05/15 02:04:29;;;;;;;3.47;3.17;;;13.50;82.80;;;;;;4939594;29;20023;-89
2021/05/15 02:06:58;;;;;;;6.22;3.58;;;13.40;82.90;;;;;;4939023;29;20438;-89
2021/05/15 02:09:24;;;;;;;3.95;3.15;;;13.40;83.00;;;;;;4939044;29;20027;-88
2021/05/15 02:11:50;;;;;;;4.60;2.85;;;13.40;83.20;;;;;;4939075;29;20038;-89
2021/05/15 02:14:16;;;;;;;3.90;2.75;;;13.40;83.40;;;;;;4956177;28;20028;-89
2021/05/15 02:16:42;;;;;;;5.45;3.40;;;13.30;83.40;;;;;;4939022;29;20115;-88
2021/05/15 02:19:07;;;;;;;5.60;3.47;;;13.30;83.60;;;;;;4952339;28;20427;-89
2021/05/15 02:21:33;;;;;;;4.30;3.28;;;13.30;83.60;;;;;;4977757;28;20018;-89
2021/05/15 02:23:59;;;;;;;4.05;2.70;;;13.30;83.80;;;;;;4977311;28;20413;-89
2021/05/15 02:26:25;;;;;;;4.07;3.10;;;13.30;83.90;;;;;;4977574;28;20121;-89
2021/05/15 02:28:51;;;;;;;3.50;2.90;;;13.30;84.10;;;;;;4979237;28;20457;-89
2021/05/15 02:31:17;;;;;;;3.70;3.05;;;13.30;84.20;;;;;;4981402;28;20022;-88
2021/05/15 02:33:42;;;;;;;4.07;3.10;;;13.30;84.20;;;;;;4981775;28;20058;-89
2021/05/15 02:36:09;;;;;;;3.20;2.90;;;13.20;84.40;;;;;;4981246;28;20458;-89
2021/05/15 02:38:35;;;;;;;5.18;3.45;;;13.20;84.40;;;;;;4981582;28;20384;-89
2021/05/15 02:41:00;;;;;;;3.60;3.20;;;13.20;84.60;;;;;;4998818;28;20105;-89
2021/05/15 02:43:26;;;;;;;4.07;3.65;;;13.30;84.80;;;;;;4981220;28;20080;-89
2021/05/15 02:45:53;;;;;;;4.05;3.35;;;13.30;85.00;;;;;;4981534;28;20122;-89
2021/05/15 02:48:18;;;;;;;4.97;2.88;;;13.30;85.00;;;;;;4981306;28;20030;-88
2021/05/15 02:50:50;;;;;;;4.43;3.65;;;13.30;85.10;;;;;;4981235;28;20117;-89
2021/05/15 02:53:16;;;;;;;5.40;3.50;;;13.30;85.20;;;;;;4980996;28;20109;-88
2021/05/15 02:55:42;;;;;;;7.57;4.20;;;13.40;85.30;;;;;;4980878;28;20060;-89
2021/05/15 02:58:08;;;;;;;8.75;3.90;;;13.40;85.50;;;;;;4998168;28;20049;-88
2021/05/15 03:00:35;;;;;;;5.43;3.55;;;13.40;85.40;;;;;;4981106;28;20030;-89
2021/05/15 03:03:00;;;;;;;4.05;3.53;;;13.50;85.60;;;;;;4998429;28;20450;-88
2021/05/15 03:05:28;;;;;;;4.45;3.85;;;13.60;85.50;;;;;;4980805;28;20113;-89
2021/05/15 03:07:54;;;;;;;4.18;3.70;;;13.60;85.60;;;;;;4980812;28;20033;-89
2021/05/15 03:10:23;;;;;;;7.15;4.05;;;13.60;85.50;;;;;;4998499;28;20026;-88
2021/05/15 03:12:53;;;;;;;3.72;3.35;;;13.60;85.50;;;;;;4980679;28;20030;-89
2021/05/15 03:15:20;;;;;;;4.93;3.55;;;13.70;85.50;;;;;;4980488;28;20068;-92
2021/05/15 03:17:45;;;;;;;8.68;4.32;;;13.70;85.60;;;;;;4980275;28;20453;-90
2021/05/15 03:20:15;;;;;;;4.80;4.28;;;13.80;85.60;;;;;;4986249;28;20046;-90
2021/05/15 03:22:41;;;;;;;5.78;3.80;;;13.80;85.50;;;;;;4978406;28;20088;-90
2021/05/15 03:25:08;;;;;;;4.55;4.07;;;13.90;85.60;;;;;;5002052;28;20034;-91
2021/05/15 03:27:34;;;;;;;4.80;3.83;;;13.90;85.60;;;;;;4985764;28;20015;-90
2021/05/15 03:30:00;;;;;;;4.40;3.30;;;14.00;85.60;;;;;;4985381;28;20106;-91
2021/05/15 03:32:26;;;;;;;4.85;3.78;;;14.00;85.50;;;;;;4975803;28;20023;-89
2021/05/15 03:34:52;;;;;;;4.80;3.88;;;14.10;85.50;;;;;;4968147;28;20078;-89
2021/05/15 03:37:18;;;;;;;5.82;3.83;;;14.20;85.40;;;;;;4966494;28;20048;-88
2021/05/15 03:39:44;;;;;;;6.30;4.20;;;14.20;85.40;;;;;;4962565;28;20378;-92
2021/05/15 03:42:10;;;;;;;4.50;3.58;;;14.30;85.80;;;;;;4960944;28;20030;-89
2021/05/15 03:44:36;;;;;;;5.70;4.32;;;14.30;85.20;;;;;;4960696;28;20064;-89
2021/05/15 03:47:02;;;;;;;5.18;3.88;;;14.40;85.10;;;;;;4960885;28;20069;-90
2021/05/15 03:49:28;;;;;;;7.32;4.03;;;14.40;85.00;;;;;;4960681;28;20034;-88
2021/05/15 03:51:53;;;;;;;5.10;4.30;;;14.50;85.10;;;;;;4960981;28;20025;-89
2021/05/15 03:54:19;;;;;;;4.40;4.00;;;14.60;84.90;;;;;;4960412;28;20062;-89
2021/05/15 03:56:45;;;;;;;5.20;4.30;;;14.60;84.90;;;;;;4960913;28;20023;-89
2021/05/15 03:59:11;;;;;;;5.18;4.25;;;14.60;84.90;;;;;;4978019;28;20469;-89
2021/05/15 04:01:36;;;;;;;7.45;4.45;;;14.70;84.70;;;;;;4977770;28;20559;-88
2021/05/15 04:04:02;;;;;;;5.53;4.65;;;14.80;84.60;;;;;;4960568;28;20513;-89
2021/05/15 04:06:28;;;;;;;5.25;4.15;;;14.80;84.60;;;;;;4960515;28;20117;-89
2021/05/15 04:08:54;;;;;;;5.25;4.40;;;14.80;84.40;;;;;;4960586;28;20484;-88
2021/05/15 04:11:20;;;;;;;5.88;4.40;;;14.90;84.40;;;;;;4960142;28;20034;-89
2021/05/15 04:13:56;;;;;;;7.57;4.20;;;15.00;84.30;;;;;;4977588;28;20031;-89
2021/05/15 04:18:48;;;;;;;7.05;5.13;;;15.10;84.10;;;;;;4981334;28;20365;-89
2021/05/15 04:21:14;;;;;;;7.25;4.32;;;15.20;84.10;;;;;;4979320;28;20026;-89
2021/05/15 04:23:40;;;;;;;4.80;4.28;;;15.20;83.80;;;;;;4979418;28;20033;-89
2021/05/15 04:26:06;;;;;;;5.53;4.43;;;15.30;83.60;;;;;;4979339;28;20022;-89
2021/05/15 04:28:32;;;;;;;6.03;4.68;;;15.40;83.40;;;;;;4979353;28;20038;-89
2021/05/15 04:30:58;;;;;;;6.70;4.32;;;15.40;83.20;;;;;;4979167;28;20369;-89
2021/05/15 04:33:24;;;;;;;4.80;3.80;;;15.50;83.10;;;;;;4979072;28;20022;-89
2021/05/15 04:35:52;;;;;;;5.60;4.38;;;15.60;82.90;;;;;;4979264;28;20034;-89
2021/05/15 04:38:18;;;;;;;5.45;4.63;;;15.70;82.70;;;;;;4979687;28;20160;-89
2021/05/15 04:40:44;;;;;;;9.38;7.40;;;15.80;82.50;;;;;;4979258;28;20106;-89
2021/05/15 04:43:10;;;;;;;8.05;5.97;;;15.80;82.20;;;;;;4979568;28;20064;-90
2021/05/15 04:45:35;;;;;;;9.43;6.30;;;15.90;82.00;;;;;;4978985;28;20110;-89
2021/05/15 04:48:01;;;;;;;7.65;6.32;;;16.00;81.90;;;;;;4978910;28;20019;-89
2021/05/15 04:50:27;;;;;;;10.00;9.05;;;16.10;81.60;;;;;;4978713;28;20022;-89
2021/05/15 04:52:53;;;;;;;13.77;12.27;;;16.20;81.10;;;;;;4978436;28;20029;-89
2021/05/15 04:55:19;;;;;;;10.63;8.40;;;16.20;80.70;;;;;;4978610;28;20026;-89
2021/05/15 04:57:47;;;;;;;8.25;6.75;;;16.20;80.70;;;;;;4979258;28;20026;-89
2021/05/15 05:00:14;;;;;;;8.52;5.97;;;16.30;80.70;;;;;;4978907;28;20088;-89
2021/05/15 05:02:39;;;;;;;5.90;5.03;;;16.40;80.40;;;;;;4979217;28;20054;-89
2021/05/15 05:05:07;;;;;;;6.07;5.03;;;16.50;80.20;;;;;;4979699;28;20049;-90
2021/05/15 05:07:33;;;;;;;5.82;4.65;;;16.60;79.80;;;;;;4995565;28;20114;-89
2021/05/15 05:09:58;;;;;;;5.65;5.03;;;16.60;79.40;;;;;;5000798;28;20042;-88
2021/05/15 05:12:24;;;;;;;17.13;14.60;;;16.70;79.10;;;;;;4996667;28;20022;-89
2021/05/15 05:14:50;;;;;;;15.38;13.73;;;16.70;78.80;;;;;;4996233;28;20062;-89
2021/05/15 05:17:15;;;;;;;12.85;11.02;;;16.80;78.50;;;;;;4984332;28;20044;-89
2021/05/15 05:19:41;;;;;;;9.65;7.18;;;16.70;78.30;;;;;;4986201;28;20023;-90
2021/05/15 05:22:09;;;;;;;9.27;6.05;;;16.80;78.30;;;;;;4960867;28;20022;-90
2021/05/15 05:24:35;;;;;;;11.65;6.55;;;16.80;78.00;;;;;;4960911;28;20033;-89
2021/05/15 05:27:02;;;;;;;6.80;5.60;;;16.80;77.90;;;;;;4959011;28;20026;-89
2021/05/15 05:29:28;;;;;;;7.90;5.03;;;16.90;77.60;;;;;;4958908;28;20077;-89
2021/05/15 05:31:55;;;;;;;6.22;5.30;;;16.90;77.30;;;;;;4959376;28;20065;-89
2021/05/15 05:34:22;;;;;;;7.55;5.53;;;17.00;77.40;;;;;;4959956;28;20050;-89
2021/05/15 05:36:48;;;;;;;6.32;4.47;;;17.00;77.20;;;;;;4958700;28;20027;-89
2021/05/15 05:39:17;;;;;;;5.97;4.18;;;17.10;76.90;;;;;;4958433;28;20109;-89
2021/05/15 05:41:44;;;;;;;4.70;3.70;;;17.20;76.80;;;;;;4976007;28;20070;-90
2021/05/15 05:44:10;;;;;;;5.47;3.92;;;17.40;76.70;;;;;;4958545;28;20029;-89
2021/05/15 05:46:36;;;;;;;5.57;3.38;;;17.50;76.50;;;;;;4960514;28;20018;-89
2021/05/15 05:49:02;;;;;;;3.88;2.63;;;17.60;76.00;;;;;;4977839;28;20031;-90
2021/05/15 05:51:27;;;;;;;3.55;3.05;;;17.80;74.80;;;;;;4961188;28;20038;-89
2021/05/15 05:53:53;;;;;;;3.30;2.63;;;17.90;74.50;;;;;;4958833;28;20022;-89
2021/05/15 05:56:19;;;;;;;2.70;2.30;;;17.90;73.70;;;;;;4959261;28;20031;-89
2021/05/15 05:58:46;;;;;;;3.50;2.72;;;18.00;73.30;;;;;;4958096;28;20182;-89
2021/05/15 06:01:13;;;;;;;2.55;2.33;;;18.10;72.60;;;;;;4958512;28;20113;-89
2021/05/15 06:04:04;;;;;;;2.33;2.00;;;18.10;72.10;;;;;;4975115;28;20025;-89
2021/05/15 06:06:30;;;;;;;3.55;2.20;;;18.10;71.40;;;;;;4958319;28;20382;-89
2021/05/15 06:08:57;;;;;;;2.50;2.30;;;18.20;71.50;;;;;;4957953;28;20034;-88
2021/05/15 06:11:23;;;;;;;3.03;2.50;;;18.30;71.30;;;;;;4958347;28;20026;-89
2021/05/15 06:13:49;;;;;;;2.58;2.30;;;18.40;70.90;;;;;;4958387;28;20030;-89
2021/05/15 06:16:15;;;;;;;4.32;2.13;;;18.40;70.60;;;;;;4957977;28;20485;-89
2021/05/15 06:18:41;;;;;;;2.17;1.98;;;18.50;70.30;;;;;;4961917;28;20025;-90
2021/05/15 06:21:06;;;;;;;2.97;2.45;;;18.50;70.20;;;;;;4977447;28;20019;-90
2021/05/15 06:23:32;;;;;;;2.47;2.17;;;18.60;70.00;;;;;;4977643;28;20361;-90
2021/05/15 06:25:59;;;;;;;1.60;1.50;;;18.70;69.60;;;;;;4977292;28;20038;-90
2021/05/15 06:28:25;;;;;;;2.15;2.05;;;18.80;69.10;;;;;;4977599;28;20069;-90
2021/05/15 06:30:51;;;;;;;2.30;2.10;;;18.90;68.90;;;;;;4977365;28;20053;-90
2021/05/15 06:33:17;;;;;;;2.42;2.20;;;19.00;68.70;;;;;;4977506;28;20030;-90
2021/05/15 06:35:42;;;;;;;2.20;2.00;;;19.00;68.20;;;;;;4977292;28;20116;-89
2021/05/15 06:38:09;;;;;;;2.97;2.15;;;19.10;67.90;;;;;;4977390;28;20169;-89
2021/05/15 06:40:35;;;;;;;3.08;2.08;;;19.20;67.50;;;;;;4977601;28;20029;-89
2021/05/15 06:43:01;;;;;;;1.98;1.85;;;19.20;67.30;;;;;;4977259;28;20030;-92
2021/05/15 06:45:39;;;;;;;2.38;1.50;;;19.20;67.10;;;;;;4968843;28;20047;-90
2021/05/15 06:48:06;;;;;;;2.53;1.90;;;19.30;66.90;;;;;;4974664;28;20494;-89
2021/05/15 06:50:32;;;;;;;2.35;1.90;;;19.40;66.20;;;;;;4963485;28;20023;-90
2021/05/15 06:52:58;;;;;;;2.78;1.90;;;19.40;65.50;;;;;;4971193;28;20022;-89
2021/05/15 06:55:26;;;;;;;1.88;1.52;;;19.50;65.50;;;;;;4973920;28;20026;-90
2021/05/15 06:57:52;;;;;;;3.97;1.40;;;19.60;65.60;;;;;;4981124;28;20038;-92
2021/05/15 07:00:18;;;;;;;1.73;1.63;;;19.70;65.30;;;;;;4972086;28;20043;-90
2021/05/15 07:02:44;;;;;;;1.52;1.42;;;19.90;64.50;;;;;;4960435;28;20023;-90
2021/05/15 07:05:10;;;;;;;1.70;1.48;;;20.00;64.30;;;;;;4959436;28;20030;-91
2021/05/15 07:07:36;;;;;;;1.67;1.42;;;20.10;63.90;;;;;;4943090;28;20027;-90
2021/05/15 07:10:03;;;;;;;1.60;1.50;;;20.20;63.70;;;;;;4957431;28;20041;-91
2021/05/15 07:12:28;;;;;;;2.15;1.95;;;20.30;63.60;;;;;;4956772;28;20027;-90
2021/05/15 07:14:56;;;;;;;1.50;1.40;;;20.40;62.70;;;;;;4976335;28;20033;-88
2021/05/15 07:17:25;;;;;;;1.50;1.40;;;20.40;62.60;;;;;;4961744;28;20030;-90
2021/05/15 07:19:58;;;;;;;1.85;1.52;;;20.50;62.40;;;;;;4974105;28;20346;-90
2021/05/15 07:22:26;;;;;;;2.05;1.85;;;20.60;61.90;;;;;;4980581;28;20034;-90
2021/05/15 07:24:54;;;;;;;2.38;1.85;;;20.70;61.50;;;;;;4980570;28;20026;-90
2021/05/15 07:27:20;;;;;;;2.40;1.58;;;20.60;61.10;;;;;;4947955;28;20030;-90
2021/05/15 07:29:48;;;;;;;2.00;1.77;;;20.50;61.00;;;;;;4984466;28;20035;-90
2021/05/15 07:32:15;;;;;;;1.50;1.40;;;20.50;61.20;;;;;;4986695;28;20076;-90
2021/05/15 07:34:41;;;;;;;1.90;1.70;;;20.50;61.40;;;;;;4983851;28;20026;-91
2021/05/15 07:37:09;;;;;;;1.60;1.50;;;20.60;61.60;;;;;;4979349;28;20037;-90
2021/05/15 07:39:36;;;;;;;1.70;1.60;;;20.70;61.40;;;;;;4996962;28;20022;-90
2021/05/15 07:42:02;;;;;;;1.50;1.40;;;20.80;60.80;;;;;;4979938;28;20524;-90
2021/05/15 07:44:28;;;;;;;2.25;1.25;;;20.80;60.30;;;;;;4980545;28;20022;-90
2021/05/15 07:46:53;;;;;;;1.60;1.50;;;20.90;60.10;;;;;;4979734;28;20026;-89
2021/05/15 07:49:19;;;;;;;1.67;1.30;;;21.00;59.70;;;;;;4997451;28;20093;-90
2021/05/15 07:51:46;;;;;;;1.38;1.27;;;21.00;59.50;;;;;;4981399;28;20114;-90
2021/05/15 07:54:11;;;;;;;2.40;1.38;;;21.00;58.60;;;;;;4983325;28;20023;-89
2021/05/15 07:56:38;;;;;;;3.08;1.60;;;21.00;58.40;;;;;;4986177;28;20068;-89
2021/05/15 07:59:04;;;;;;;2.13;1.92;;;21.00;58.30;;;;;;4983892;28;20050;-90
2021/05/15 08:01:30;;;;;;;1.50;1.40;;;21.00;58.00;;;;;;4981416;28;20033;-90
2021/05/15 08:03:55;;;;;;;1.33;1.20;;;21.10;57.90;;;;;;4979726;28;20046;-90
2021/05/15 08:06:21;;;;;;;1.50;1.40;;;21.10;57.90;;;;;;4980183;28;20022;-89
2021/05/15 08:08:47;;;;;;;1.63;1.25;;;21.10;57.70;;;;;;4979772;28;20030;-90
2021/05/15 08:11:13;;;;;;;1.67;1.58;;;21.20;57.80;;;;;;4979377;28;20027;-90
2021/05/15 08:13:39;;;;;;;2.45;1.15;;;21.30;57.10;;;;;;4979340;28;20468;-89
2021/05/15 08:16:05;;;;;;;2.65;1.33;;;21.30;56.80;;;;;;4980009;28;20033;-90
2021/05/15 08:18:32;;;;;;;1.52;1.30;;;21.40;56.50;;;;;;4977472;28;20377;-90
2021/05/15 08:20:58;;;;;;;2.92;2.72;;;21.60;56.10;;;;;;4960253;28;20033;-90
2021/05/15 08:23:23;;;;;;;2.05;1.80;;;21.70;56.20;;;;;;4960295;28;20113;-90
2021/05/15 08:25:49;;;;;;;1.05;0.98;;;21.80;55.60;;;;;;4976904;28;20092;-90
2021/05/15 08:28:16;;;;;;;1.42;1.33;;;21.90;55.10;;;;;;4961402;28;20054;-90
2021/05/15 08:30:43;;;;;;;1.30;1.20;;;22.00;54.60;;;;;;4964091;28;20477;-90
2021/05/15 08:33:09;;;;;;;1.60;1.10;;;22.10;54.00;;;;;;4973015;28;20018;-91
2021/05/15 08:35:35;;;;;;;1.38;1.20;;;22.20;53.70;;;;;;4972910;28;20022;-89
2021/05/15 08:38:03;;;;;;;4.03;1.48;;;22.20;53.60;;;;;;4975166;28;20436;-89
2021/05/15 08:40:29;;;;;;;1.10;1.05;;;22.30;52.10;;;;;;4978914;28;20030;-90
2021/05/15 08:42:55;;;;;;;1.20;1.10;;;22.30;52.20;;;;;;4959786;28;20025;-88
2021/05/15 08:45:23;;;;;;;2.28;1.40;;;22.40;52.40;;;;;;4978670;28;20027;-91
2021/05/15 08:47:51;;;;;;;2.10;1.10;;;22.50;51.10;;;;;;4962257;28;20050;-91
2021/05/15 08:50:37;;;;;;;1.30;1.20;;;22.60;51.30;;;;;;4964712;28;20424;-92
2021/05/15 08:53:09;;;;;;;1.00;1.00;;;22.70;50.90;;;;;;4956945;28;20014;-93
2021/05/15 08:55:43;;;;;;;1.67;1.08;;;22.70;50.90;;;;;;4981486;28;20101;-92
2021/05/15 08:58:20;;;;;;;0.95;0.95;;;22.80;51.50;;;;;;4969374;28;20034;-93
2021/05/15 09:01:09;;;;;;;1.20;1.10;;;22.90;51.20;;;;;;4961856;28;20458;-92
2021/05/15 09:03:38;;;;;;;0.73;0.73;;;23.20;50.50;;;;;;4962952;28;20038;-92
2021/05/15 09:06:05;;;;;;;1.02;1.02;;;23.30;50.80;;;;;;4962861;28;20026;-91
2021/05/15 09:09:04;;;;;;;0.90;0.90;;;23.40;50.30;;;;;;4961504;28;20041;-92
2021/05/15 09:11:34;;;;;;;1.20;1.10;;;23.50;49.70;;;;;;4957394;28;20038;-92
2021/05/15 09:14:04;;;;;;;1.00;1.00;;;23.50;49.60;;;;;;4963192;28;20041;-92
2021/05/15 09:16:30;;;;;;;2.38;1.15;;;23.40;49.10;;;;;;4962725;28;20034;-92
2021/05/15 09:19:05;;;;;;;0.80;0.80;;;23.30;48.80;;;;;;4967043;28;20018;-92
2021/05/15 09:22:02;;;;;;;1.13;1.02;;;23.30;48.20;;;;;;4984166;28;20480;-92
2021/05/15 09:24:46;;;;;;;1.13;1.02;;;23.30;48.60;;;;;;4981202;28;20080;-92
2021/05/15 09:27:48;;;;;;;;;;;;;;;;;;;;;
2021/05/15 09:30:15;;;;;;;3.63;1.20;;;23.30;48.40;;;;;;4998531;28;20097;-92
2021/05/15 09:33:04;;;;;;;2.95;1.55;;;23.30;49.10;;;;;;4984573;28;20029;-92
2021/05/15 09:35:58;;;;;;;1.17;1.08;;;23.40;48.70;;;;;;4962398;28;20066;-92
2021/05/15 09:38:26;;;;;;;1.00;1.00;;;23.50;47.90;;;;;;4963956;28;20031;-91
2021/05/15 09:40:59;;;;;;;1.10;1.10;;;23.60;48.30;;;;;;4961419;28;20520;-92
2021/05/15 09:43:27;;;;;;;;;;;23.60;47.70;;;;;;4961592;28;20030;-91
2021/05/15 09:46:14;;;;;;;0.70;0.70;;;23.50;47.40;;;;;;4958822;28;19967;-92
2021/05/15 09:49:36;;;;;;;;;;;;;;;;;;;;;
2021/05/15 09:51:58;;;;;;;1.05;0.95;;;23.60;47.50;;;;;;4972451;28;20117;-92
2021/05/15 09:54:32;;;;;;;0.77;0.75;;;23.70;47.50;;;;;;4958992;28;20023;-91
2021/05/15 09:57:11;;;;;;;1.15;1.05;;;23.70;47.40;;;;;;4958905;28;20450;-92
2021/05/15 09:59:41;;;;;;;1.15;0.98;;;23.80;46.90;;;;;;4958204;28;20054;-91
2021/05/15 10:02:20;;;;;;;1.95;0.80;;;23.80;47.20;;;;;;4959347;28;20458;-91
2021/05/15 10:04:48;;;;;;;1.02;0.85;;;23.90;45.60;;;;;;4940104;29;20039;-90
2021/05/15 10:07:24;;;;;;;1.45;0.90;;;23.80;45.60;;;;;;4939328;29;20023;-91
2021/05/15 10:09:50;;;;;;;1.88;0.82;;;23.80;45.50;;;;;;4939907;29;20046;-90
2021/05/15 10:12:26;;;;;;;;;;;;;;;;;;;;;
2021/05/15 10:14:55;;;;;;;1.00;0.95;;;23.90;46.10;;;;;;4958543;28;20110;-91
2021/05/15 10:17:23;;;;;;;1.80;0.90;;;24.00;45.90;;;;;;4960475;28;20339;-91
2021/05/15 10:19:49;;;;;;;1.05;0.98;;;24.00;46.00;;;;;;4965285;28;20110;-90
2021/05/15 10:22:18;;;;;;;1.00;0.90;;;24.00;46.00;;;;;;4965229;28;20015;-91
2021/05/15 10:24:46;;;;;;;2.60;1.27;;;23.90;46.40;;;;;;4965450;28;20023;-90
2021/05/15 10:27:13;;;;;;;0.90;0.90;;;23.90;45.50;;;;;;4960448;28;20015;-91
2021/05/15 10:29:55;;;;;;;1.80;0.98;;;23.90;46.00;;;;;;4979160;28;20057;-90
2021/05/15 10:32:30;;;;;;;0.77;0.77;;;23.90;45.30;;;;;;4979983;28;20058;-92
2021/05/15 10:35:05;;;;;;;0.85;0.73;;;23.90;46.30;;;;;;4979663;28;20047;-91
2021/05/15 10:37:37;;;;;;;0.88;0.88;;;24.10;45.70;;;;;;4978979;28;20046;-91
2021/05/15 10:40:19;;;;;;;0.90;0.90;;;24.10;45.40;;;;;;4977596;28;20031;-91
2021/05/15 10:42:56;;;;;;;0.73;0.70;;;24.30;44.40;;;;;;4972672;28;20035;-91
2021/05/15 10:45:46;;;;;;;1.35;1.05;;;24.30;44.30;;;;;;4961714;28;20034;-92
2021/05/15 10:48:25;;;;;;;0.73;0.73;;;24.30;44.60;;;;;;4961489;28;20031;-91
2021/05/15 10:50:54;;;;;;;1.48;0.95;;;24.40;44.30;;;;;;4965813;28;20520;-91
2021/05/15 10:53:32;;;;;;;3.20;1.13;;;24.40;44.00;;;;;;4962882;28;20446;-91
2021/05/15 10:56:17;;;;;;;0.90;0.90;;;24.40;43.80;;;;;;4961896;28;20019;-91
2021/05/15 10:58:43;;;;;;;1.00;0.98;;;24.40;43.50;;;;;;4956189;28;20458;-91
2021/05/15 11:01:20;;;;;;;4.97;0.90;;;24.40;44.30;;;;;;4955369;28;20054;-91
2021/05/15 11:03:47;;;;;;;1.45;0.70;;;24.40;44.70;;;;;;4959973;29;20462;-92
2021/05/15 11:06:24;;;;;;;0.65;0.65;;;24.50;44.40;;;;;;4949483;28;20434;-92
2021/05/15 11:09:03;;;;;;;0.60;0.60;;;24.70;43.50;;;;;;4961937;28;20027;-92
2021/05/15 11:11:43;;;;;;;0.50;0.50;;;24.80;43.50;;;;;;4948521;28;20023;-91
2021/05/15 11:14:30;;;;;;;0.60;0.60;;;24.90;43.60;;;;;;4961889;28;20026;-92
2021/05/15 11:17:16;;;;;;;0.70;0.70;;;25.00;42.80;;;;;;4978585;28;20103;-92
2021/05/15 11:20:04;;;;;;;0.63;0.63;;;25.00;42.90;;;;;;4978731;28;20014;-92
2021/05/15 11:22:59;;;;;;;0.85;0.85;;;24.90;43.50;;;;;;4978697;28;20027;-89
2021/05/15 11:25:29;;;;;;;1.30;0.68;;;24.90;41.70;;;;;;4959078;28;20558;-90
2021/05/15 11:28:23;;;;;;;0.77;0.77;;;24.70;42.90;;;;;;4978770;28;20426;-90
2021/05/15 11:31:01;;;;;;;2.70;1.23;;;24.70;41.50;;;;;;4969304;28;20026;-92
2021/05/15 11:33:29;;;;;;;0.80;0.80;;;24.60;42.30;;;;;;4962873;28;20061;-93
2021/05/15 11:35:58;;;;;;;1.27;0.40;;;24.50;41.80;;;;;;4947784;28;20031;-92
2021/05/15 11:38:29;;;;;;;2.25;0.88;;;24.50;42.20;;;;;;4947693;28;20027;-93
2021/05/15 11:41:19;;;;;;;0.60;0.60;;;24.60;42.30;;;;;;4962841;28;20625;-92
2021/05/15 11:43:49;;;;;;;0.60;0.60;;;24.60;42.20;;;;;;4959231;28;20031;-92
2021/05/15 11:46:36;;;;;;;3.40;0.88;;;24.70;42.30;;;;;;4946031;28;20026;-93
2021/05/15 11:49:05;;;;;;;1.00;0.70;;;24.90;42.20;;;;;;4961847;28;20039;-92
2021/05/15 11:51:37;;;;;;;0.80;0.80;;;25.00;41.50;;;;;;4947220;28;20027;-92
2021/05/15 11:54:09;;;;;;;0.60;0.60;;;25.00;41.00;;;;;;4964114;28;20050;-93
2021/05/15 11:56:49;;;;;;;0.60;0.60;;;25.00;41.30;;;;;;4986571;28;20101;-93
2021/05/15 11:59:18;;;;;;;0.75;0.75;;;25.20;42.10;;;;;;4976307;28;20055;-93
2021/05/15 12:01:45;;;;;;;1.55;1.00;;;25.40;42.30;;;;;;4978166;28;20151;-93
2021/05/15 12:04:16;;;;;;;0.65;0.65;;;25.80;41.70;;;;;;4962345;28;20023;-93
2021/05/15 12:06:44;;;;;;;1.23;0.90;;;26.00;41.00;;;;;;4946368;28;20027;-92
2021/05/15 12:09:19;;;;;;;0.70;0.70;;;26.20;39.70;;;;;;4962213;28;20077;-92
2021/05/15 12:12:07;;;;;;;1.35;0.80;;;26.10;39.10;;;;;;4953943;29;20027;-92
2021/05/15 12:14:34;;;;;;;0.95;0.95;;;26.10;39.50;;;;;;4965669;28;20030;-93
2021/05/15 12:17:07;;;;;;;0.70;0.70;;;26.30;39.90;;;;;;4982927;28;20027;-91
2021/05/15 12:19:35;;;;;;;0.70;0.63;;;26.60;39.70;;;;;;4982045;28;20041;-92
2021/05/15 12:22:05;;;;;;;1.13;1.02;;;27.00;41.00;;;;;;4982880;28;20015;-93
2021/05/15 12:24:41;;;;;;;1.10;1.00;;;27.60;41.30;;;;;;4964530;28;20086;-92
2021/05/15 12:27:22;;;;;;;3.75;0.95;;;28.20;39.60;;;;;;4983101;28;20030;-92
2021/05/15 12:30:03;;;;;;;1.17;0.70;;;28.20;37.30;;;;;;4988507;28;20069;-91
2021/05/15 12:32:30;;;;;;;0.93;0.93;;;27.90;37.60;;;;;;4990360;28;20069;-92
2021/05/15 12:35:11;;;;;;;2.00;1.13;;;27.90;38.80;;;;;;4964070;28;20041;-93
2021/05/15 12:37:41;;;;;;;1.10;0.98;;;28.20;38.40;;;;;;4960617;28;20019;-93
2021/05/15 12:40:16;;;;;;;0.70;0.70;;;28.70;38.60;;;;;;4960677;28;20461;-92
2021/05/15 12:42:44;;;;;;;0.95;0.75;;;29.30;39.00;;;;;;4961140;28;20023;-93
2021/05/15 12:45:16;;;;;;;0.88;0.70;;;30.00;38.60;;;;;;4980188;28;20419;-92
2021/05/15 12:47:46;;;;;;;0.70;0.70;;;30.50;36.80;;;;;;4971131;28;20026;-91
2021/05/15 12:50:21;;;;;;;1.00;1.00;;;30.80;36.90;;;;;;4967257;28;20027;-90
2021/05/15 12:52:47;;;;;;;2.60;1.20;;;31.20;36.70;;;;;;4957855;28;20106;-91
2021/05/15 12:55:17;;;;;;;0.90;0.90;;;31.60;36.40;;;;;;4958136;28;20026;-90
2021/05/15 12:57:55;;;;;;;0.90;0.82;;;31.80;35.60;;;;;;4954520;28;20027;-89
2021/05/15 13:00:22;;;;;;;1.17;1.08;;;32.00;32.80;;;;;;4939656;29;20071;-88
2021/05/15 13:03:04;;;;;;;0.80;0.80;;;31.70;34.10;;;;;;4957563;28;20019;-89
2021/05/15 13:05:35;;;;;;;0.80;0.80;;;31.20;34.50;;;;;;4967377;28;20027;-90